createdAt,value
2018-04-08T00:02:04.733Z,18.58
2018-04-08T00:04:31.691Z,19.15
2018-04-08T00:06:58.762Z,19.45
2018-04-08T00:09:25.522Z,19.23
2018-04-08T00:11:53.102Z,19.80
2018-04-08T00:14:20.118Z,17.67
2018-04-08T00:16:47.546Z,21.08
2018-04-08T00:19:14.082Z,21.77
2018-04-08T00:21:41.494Z,21.13
2018-04-08T00:24:09.041Z,20.97
2018-04-08T00:26:36.184Z,19.67
2018-04-08T00:29:03.770Z,20.40
2018-04-08T00:31:30.967Z,21.13
2018-04-08T00:33:57.776Z,19.87
2018-04-08T00:36:24.827Z,20.83
2018-04-08T00:38:52.148Z,20.05
2018-04-08T00:41:19.593Z,20.45
2018-04-08T00:43:46.347Z,20.33
2018-04-08T00:46:13.225Z,20.83
2018-04-08T00:48:40.188Z,20.45
2018-04-08T00:51:08.012Z,19.90
2018-04-08T00:53:35.259Z,21.40
2018-04-08T00:56:03.635Z,20.42
2018-04-08T00:58:30.406Z,21.40
2018-04-08T01:00:57.106Z,21.30
2018-04-08T01:03:24.949Z,20.00
2018-04-08T01:05:51.690Z,20.35
2018-04-08T01:08:18.483Z,17.92
2018-04-08T01:10:46.564Z,19.17
2018-04-08T01:13:13.354Z,18.83
2018-04-08T01:15:41.642Z,18.70
2018-04-08T01:18:08.394Z,17.75
2018-04-08T01:20:35.136Z,19.55
2018-04-08T01:23:01.829Z,17.60
2018-04-08T01:25:28.591Z,17.33
2018-04-08T01:27:57.258Z,19.00
2018-04-08T01:30:25.028Z,17.45
2018-04-08T01:32:51.744Z,18.73
2018-04-08T01:35:18.511Z,19.40
2018-04-08T01:37:45.949Z,18.10
2018-04-08T01:40:13.561Z,19.17
2018-04-08T01:42:40.323Z,19.40
2018-04-08T01:45:07.141Z,18.73
2018-04-08T01:47:34.255Z,19.70
2018-04-08T01:50:01.839Z,18.50
2018-04-08T01:52:28.504Z,18.33
2018-04-08T01:54:56.509Z,19.37
2018-04-08T01:57:23.809Z,18.70
2018-04-08T01:59:50.978Z,17.83
2018-04-08T02:02:18.558Z,17.25
2018-04-08T02:04:45.758Z,19.25
2018-04-08T02:07:12.458Z,19.15
2018-04-08T02:09:39.154Z,19.03
2018-04-08T02:12:06.686Z,18.73
2018-04-08T02:14:33.460Z,17.85
2018-04-08T02:17:00.283Z,18.00
2018-04-08T02:19:27.121Z,17.15
2018-04-08T02:21:54.558Z,17.85
2018-04-08T02:24:22.661Z,19.27
2018-04-08T02:26:49.413Z,21.20
2018-04-08T02:29:16.212Z,17.12
2018-04-08T02:31:43.682Z,17.87
2018-04-08T02:34:11.552Z,17.60
2018-04-08T02:36:38.341Z,15.95
2018-04-08T02:39:05.893Z,18.17
2018-04-08T02:41:32.856Z,17.02
2018-04-08T02:43:59.633Z,16.92
2018-04-08T02:46:26.691Z,16.23
2018-04-08T02:48:53.559Z,16.85
2018-04-08T02:51:20.533Z,17.37
2018-04-08T02:53:47.296Z,16.62
2018-04-08T02:56:14.775Z,17.70
2018-04-08T02:58:41.656Z,16.92
2018-04-08T03:01:09.066Z,16.48
2018-04-08T03:03:36.604Z,17.30
2018-04-08T03:06:04.377Z,16.60
2018-04-08T03:08:31.359Z,17.50
2018-04-08T03:10:58.122Z,17.48
2018-04-08T03:13:24.842Z,17.15
2018-04-08T03:15:51.758Z,17.42
2018-04-08T03:18:18.608Z,16.48
2018-04-08T03:20:45.967Z,16.70
2018-04-08T03:23:12.854Z,17.00
2018-04-08T03:25:39.609Z,16.73
2018-04-08T03:28:06.383Z,16.50
2018-04-08T03:30:33.628Z,18.15
2018-04-08T03:33:00.623Z,17.15
2018-04-08T03:35:29.423Z,16.33
2018-04-08T03:37:56.201Z,15.27
2018-04-08T03:40:22.894Z,16.60
2018-04-08T03:42:50.426Z,17.08
2018-04-08T03:45:17.146Z,16.77
2018-04-08T03:47:47.620Z,17.90
2018-04-08T03:50:14.303Z,16.92
2018-04-08T03:52:40.961Z,17.40
2018-04-08T03:55:07.673Z,18.83
2018-04-08T03:57:35.132Z,19.73
2018-04-08T04:00:02.780Z,20.83
2018-04-08T04:02:29.304Z,19.52
2018-04-08T04:04:56.061Z,19.83
2018-04-08T04:07:23.622Z,20.58
2018-04-08T04:09:50.350Z,21.40
2018-04-08T04:12:18.591Z,22.20
2018-04-08T04:14:45.326Z,22.50
2018-04-08T04:17:13.357Z,22.00
2018-04-08T04:19:53.043Z,24.05
2018-04-08T04:22:33.894Z,22.27
2018-04-08T04:25:19.015Z,24.05
2018-04-08T04:27:45.539Z,21.73
2018-04-08T04:30:12.335Z,22.20
2018-04-08T04:32:39.085Z,23.15
2018-04-08T04:35:07.553Z,24.00
2018-04-08T04:37:34.451Z,22.58
2018-04-08T04:40:01.627Z,23.05
2018-04-08T04:42:28.404Z,24.37
2018-04-08T04:44:55.196Z,22.02
2018-04-08T04:47:22.580Z,22.30
2018-04-08T04:49:49.393Z,23.62
2018-04-08T04:52:16.370Z,22.17
2018-04-08T04:54:43.444Z,21.60
2018-04-08T04:57:10.182Z,23.58
2018-04-08T04:59:36.653Z,21.85
2018-04-08T05:02:03.407Z,22.37
2018-04-08T05:04:30.174Z,20.90
2018-04-08T05:06:56.631Z,21.17
2018-04-08T05:09:23.612Z,22.30
2018-04-08T05:11:50.369Z,20.62
2018-04-08T05:14:17.807Z,21.10
2018-04-08T05:16:45.265Z,21.77
2018-04-08T05:19:12.687Z,22.45
2018-04-08T05:21:39.689Z,21.02
2018-04-08T05:24:06.450Z,20.25
2018-04-08T05:26:34.107Z,20.27
2018-04-08T05:29:00.539Z,19.55
2018-04-08T05:31:27.636Z,18.75
2018-04-08T05:33:54.401Z,18.45
2018-04-08T05:36:22.189Z,18.95
2018-04-08T05:38:49.051Z,19.25
2018-04-08T05:41:15.830Z,18.85
2018-04-08T05:43:42.260Z,19.52
2018-04-08T05:46:09.234Z,19.60
2018-04-08T05:48:35.973Z,19.93
2018-04-08T05:51:02.767Z,19.00
2018-04-08T05:53:29.640Z,19.77
2018-04-08T05:55:56.614Z,19.83
2018-04-08T05:58:23.447Z,20.23
2018-04-08T06:00:50.303Z,19.60
2018-04-08T06:03:17.099Z,21.80
2018-04-08T06:05:44.777Z,20.48
2018-04-08T06:08:11.734Z,20.62
2018-04-08T06:10:38.623Z,20.70
2018-04-08T06:13:05.317Z,21.30
2018-04-08T06:15:32.983Z,20.55
2018-04-08T06:17:59.722Z,20.50
2018-04-08T06:20:26.484Z,21.27
2018-04-08T06:22:53.259Z,20.62
2018-04-08T06:25:19.754Z,21.02
2018-04-08T06:27:46.578Z,20.90
2018-04-08T06:30:13.394Z,20.90
2018-04-08T06:32:40.979Z,21.83
2018-04-08T06:35:07.536Z,21.77
2018-04-08T06:37:34.096Z,20.75
2018-04-08T06:40:01.085Z,21.10
2018-04-08T06:42:27.983Z,21.50
2018-04-08T06:44:55.240Z,21.92
2018-04-08T06:47:21.974Z,20.47
2018-04-08T06:49:49.444Z,22.40
2018-04-08T06:52:20.111Z,22.50
2018-04-08T06:54:46.653Z,21.37
2018-04-08T06:57:14.583Z,21.50
2018-04-08T06:59:41.354Z,21.25
2018-04-08T07:02:09.607Z,21.70
2018-04-08T07:04:36.632Z,20.88
2018-04-08T07:07:04.051Z,22.20
2018-04-08T07:09:30.861Z,21.80
2018-04-08T07:11:57.751Z,21.37
2018-04-08T07:14:24.595Z,21.67
2018-04-08T07:16:51.409Z,23.35
2018-04-08T07:19:18.524Z,22.50
2018-04-08T07:21:46.247Z,23.50
2018-04-08T07:24:13.290Z,22.02
2018-04-08T07:26:40.234Z,21.50
2018-04-08T07:29:07.018Z,22.87
2018-04-08T07:31:33.980Z,23.50
2018-04-08T07:34:00.832Z,21.55
2018-04-08T07:36:27.345Z,21.33
2018-04-08T07:38:54.324Z,21.70
2018-04-08T07:41:21.325Z,20.93
2018-04-08T07:43:49.819Z,21.45
2018-04-08T07:46:16.810Z,22.45
2018-04-08T07:48:44.492Z,22.17
2018-04-08T07:51:11.238Z,21.10
2018-04-08T07:53:38.729Z,22.30
2018-04-08T07:56:05.606Z,21.17
2018-04-08T07:58:33.078Z,21.87
2018-04-08T08:01:00.714Z,21.20
2018-04-08T08:03:27.196Z,21.30
2018-04-08T08:05:53.831Z,22.08
2018-04-08T08:08:20.619Z,23.00
2018-04-08T08:10:47.714Z,22.40
2018-04-08T08:13:15.261Z,23.30
2018-04-08T08:15:42.048Z,23.20
2018-04-08T08:18:08.808Z,23.27
2018-04-08T08:20:35.398Z,22.47
2018-04-08T08:23:02.968Z,21.95
2018-04-08T08:25:29.723Z,21.27
2018-04-08T08:27:56.273Z,20.40
2018-04-08T08:30:23.158Z,19.70
2018-04-08T08:32:50.626Z,18.83
2018-04-08T08:35:17.403Z,19.80
2018-04-08T08:37:44.169Z,19.05
2018-04-08T08:40:11.014Z,19.30
2018-04-08T08:42:38.599Z,18.95
2018-04-08T08:45:05.144Z,18.70
2018-04-08T08:47:31.909Z,19.02
2018-04-08T08:49:58.677Z,18.75
2018-04-08T08:52:26.235Z,19.48
2018-04-08T08:54:53.836Z,19.70
2018-04-08T08:57:20.947Z,18.87
2018-04-08T08:59:48.474Z,18.17
2018-04-08T09:02:15.250Z,16.97
2018-04-08T09:04:42.126Z,17.03
2018-04-08T09:07:09.697Z,17.75
2018-04-08T09:09:36.468Z,16.92
2018-04-08T09:12:04.197Z,18.23
2018-04-08T09:14:33.039Z,18.08
2018-04-08T09:17:00.197Z,17.77
2018-04-08T09:19:42.804Z,20.12
2018-04-08T09:22:16.930Z,18.48
2018-04-08T09:24:46.398Z,17.98
2018-04-08T09:27:13.875Z,19.25
2018-04-08T09:29:40.654Z,20.45
2018-04-08T09:32:07.366Z,19.48
2018-04-08T09:34:33.918Z,22.20
2018-04-08T09:37:00.624Z,22.30
2018-04-08T09:39:27.905Z,22.60
2018-04-08T09:41:54.392Z,23.65
2018-04-08T09:44:21.208Z,25.33
2018-04-08T09:46:48.246Z,25.60
2018-04-08T09:49:15.111Z,24.60
2018-04-08T09:51:41.668Z,25.67
2018-04-08T09:54:08.481Z,25.35
2018-04-08T09:56:35.436Z,24.35
2018-04-08T09:59:02.065Z,23.17
2018-04-08T10:01:35.132Z,22.35
2018-04-08T10:04:02.238Z,23.52
2018-04-08T10:06:29.479Z,23.38
2018-04-08T10:08:57.014Z,25.15
2018-04-08T10:11:24.910Z,23.77
2018-04-08T10:13:52.591Z,25.02
2018-04-08T10:16:20.174Z,25.25
2018-04-08T10:18:47.296Z,27.02
2018-04-08T10:21:14.531Z,26.42
2018-04-08T10:23:41.070Z,25.52
2018-04-08T10:26:08.352Z,24.55
2018-04-08T10:28:36.004Z,25.08
2018-04-08T10:31:03.132Z,27.02
2018-04-08T10:33:30.791Z,27.13
2018-04-08T10:35:57.469Z,26.92
2018-04-08T10:38:24.631Z,26.00
2018-04-08T10:40:51.689Z,27.52
2018-04-08T10:43:18.454Z,28.00
2018-04-08T10:45:45.251Z,26.50
2018-04-08T10:48:12.076Z,26.83
2018-04-08T10:50:38.844Z,27.73
2018-04-08T10:53:05.292Z,30.73
2018-04-08T10:55:32.060Z,29.75
2018-04-08T10:57:59.041Z,29.35
2018-04-08T11:00:25.967Z,28.42
2018-04-08T11:02:52.764Z,29.23
2018-04-08T11:05:19.728Z,28.20
2018-04-08T11:07:46.745Z,29.73
2018-04-08T11:10:14.295Z,26.85
2018-04-08T11:12:42.238Z,26.48
2018-04-08T11:15:09.136Z,29.08
2018-04-08T11:17:36.526Z,26.23
2018-04-08T11:20:03.406Z,25.70
2018-04-08T11:22:31.237Z,25.27
2018-04-08T11:24:58.616Z,26.12
2018-04-08T11:27:25.504Z,26.35
2018-04-08T11:29:52.470Z,27.48
2018-04-08T11:32:19.213Z,29.63
2018-04-08T11:34:46.483Z,30.10
2018-04-08T11:37:13.511Z,29.17
2018-04-08T11:39:41.078Z,28.80
2018-04-08T11:42:09.374Z,29.42
2018-04-08T11:44:38.552Z,31.90
2018-04-08T11:47:05.721Z,32.15
2018-04-08T11:49:33.612Z,33.42
2018-04-08T11:52:00.597Z,33.28
2018-04-08T11:54:29.092Z,33.67
2018-04-08T11:56:56.964Z,30.75
2018-04-08T11:59:23.765Z,35.00
2018-04-08T12:01:51.414Z,37.00
2018-04-08T12:04:18.352Z,34.50
2018-04-08T12:06:46.038Z,33.03
2018-04-08T12:09:13.279Z,32.13
2018-04-08T12:11:40.992Z,32.95
2018-04-08T12:14:08.536Z,32.50
2018-04-08T12:16:35.312Z,31.62
2018-04-08T12:19:02.581Z,30.90
2018-04-08T12:21:29.442Z,29.50
2018-04-08T12:23:56.304Z,28.77
2018-04-08T12:26:42.979Z,30.40
2018-04-08T12:29:11.515Z,28.50
2018-04-08T12:31:38.054Z,28.00
2018-04-08T12:34:04.870Z,28.35
2018-04-08T12:36:33.074Z,29.20
2018-04-08T12:38:59.784Z,28.98
2018-04-08T12:41:26.655Z,29.33
2018-04-08T12:43:53.506Z,26.60
2018-04-08T12:46:20.600Z,26.30
2018-04-08T12:48:47.751Z,25.65
2018-04-08T12:51:14.286Z,25.75
2018-04-08T12:53:42.024Z,25.80
2018-04-08T12:56:08.872Z,26.35
2018-04-08T12:58:36.193Z,26.20
2018-04-08T13:01:04.966Z,27.10
2018-04-08T13:03:31.925Z,27.42
2018-04-08T13:05:58.817Z,27.25
2018-04-08T13:08:26.867Z,27.23
2018-04-08T13:10:53.841Z,26.65
2018-04-08T13:13:21.449Z,25.95
2018-04-08T13:15:48.825Z,25.83
2018-04-08T13:18:16.309Z,25.77
2018-04-08T13:20:43.173Z,26.83
2018-04-08T13:23:10.156Z,24.80
2018-04-08T13:25:38.177Z,25.30
2018-04-08T13:28:05.833Z,27.17
2018-04-08T13:30:33.385Z,28.33
2018-04-08T13:33:01.580Z,28.77
2018-04-08T13:35:28.884Z,27.95
2018-04-08T13:37:56.594Z,28.45
2018-04-08T13:40:23.463Z,28.97
2018-04-08T13:42:50.482Z,27.17
2018-04-08T13:45:18.880Z,28.60
2018-04-08T13:47:46.818Z,28.73
2018-04-08T13:50:13.990Z,30.85
2018-04-08T13:52:40.894Z,29.40
2018-04-08T13:55:07.672Z,27.92
2018-04-08T13:57:34.417Z,29.07
2018-04-08T14:00:01.297Z,29.40
2018-04-08T14:02:28.862Z,28.75
2018-04-08T14:04:55.636Z,29.73
2018-04-08T14:07:22.406Z,27.70
2018-04-08T14:09:49.100Z,28.70
2018-04-08T14:12:16.019Z,28.73
2018-04-08T14:14:42.776Z,28.90
2018-04-08T14:17:13.948Z,28.45
2018-04-08T14:19:41.897Z,31.25
2018-04-08T14:22:08.608Z,31.87
2018-04-08T14:24:35.385Z,31.37
2018-04-08T14:27:02.955Z,32.47
2018-04-08T14:29:29.904Z,31.57
2018-04-08T14:31:56.888Z,30.30
2018-04-08T14:34:23.641Z,33.17
2018-04-08T14:36:51.057Z,32.83
2018-04-08T14:39:18.714Z,32.45
2018-04-08T14:41:45.628Z,32.85
2018-04-08T14:44:13.998Z,31.60
2018-04-08T14:46:41.479Z,30.15
2018-04-08T14:49:09.189Z,30.80
2018-04-08T14:51:36.186Z,29.98
2018-04-08T14:54:02.959Z,30.83
2018-04-08T14:56:30.102Z,29.15
2018-04-08T14:58:56.840Z,29.58
2018-04-08T15:01:24.617Z,30.30
2018-04-08T15:03:52.267Z,29.70
2018-04-08T15:06:19.030Z,29.30
2018-04-08T15:08:47.065Z,30.40
2018-04-08T15:11:13.867Z,30.02
2018-04-08T15:13:41.304Z,30.98
2018-04-08T15:16:08.598Z,30.30
2018-04-08T15:18:35.416Z,31.95
2018-04-08T15:21:02.161Z,33.17
2018-04-08T15:23:29.533Z,32.80
2018-04-08T15:25:56.300Z,32.85
2018-04-08T15:28:23.617Z,32.47
2018-04-08T15:30:51.328Z,31.70
2018-04-08T15:33:18.128Z,31.15
2018-04-08T15:35:44.886Z,32.20
2018-04-08T15:38:11.817Z,31.90
2018-04-08T15:40:38.383Z,31.33
2018-04-08T15:43:05.384Z,30.92
2018-04-08T15:45:32.872Z,29.60
2018-04-08T15:47:59.643Z,30.67
2018-04-08T15:50:28.383Z,30.10
2018-04-08T15:52:55.535Z,29.60
2018-04-08T15:55:23.632Z,30.30
2018-04-08T15:57:50.935Z,29.17
2018-04-08T16:00:18.047Z,27.90
2018-04-08T16:02:46.640Z,28.50
2018-04-08T16:05:13.430Z,28.20
2018-04-08T16:07:41.541Z,27.98
2018-04-08T16:10:09.200Z,27.70
2018-04-08T16:12:37.704Z,28.95
2018-04-08T16:15:04.577Z,30.05
2018-04-08T16:17:32.049Z,28.30
2018-04-08T16:19:59.168Z,29.10
2018-04-08T16:22:25.979Z,29.15
2018-04-08T16:24:52.736Z,28.70
2018-04-08T16:27:20.117Z,29.33
2018-04-08T16:29:47.884Z,28.52
2018-04-08T16:32:14.725Z,29.87
2018-04-08T16:34:41.730Z,28.02
2018-04-08T16:37:08.580Z,29.92
2018-04-08T16:39:35.571Z,29.50
2018-04-08T16:42:02.530Z,27.02
2018-04-08T16:44:29.397Z,27.73
2018-04-08T16:46:56.157Z,28.90
2018-04-08T16:49:22.858Z,28.60
2018-04-08T16:51:50.295Z,29.42
2018-04-08T16:54:17.368Z,30.52
2018-04-08T16:56:45.045Z,29.95
2018-04-08T16:59:11.908Z,29.15
2018-04-08T17:01:38.542Z,29.92
2018-04-08T17:04:05.358Z,29.90
2018-04-08T17:06:32.828Z,29.40
2018-04-08T17:08:59.683Z,29.40
2018-04-08T17:11:26.820Z,29.77
2018-04-08T17:13:53.615Z,31.00
2018-04-08T17:16:20.260Z,29.77
2018-04-08T17:18:47.800Z,33.03
2018-04-08T17:21:15.534Z,30.80
2018-04-08T17:23:42.336Z,31.12
2018-04-08T17:26:09.984Z,30.83
2018-04-08T17:28:37.475Z,31.25
2018-04-08T17:31:05.488Z,30.40
2018-04-08T17:33:33.167Z,30.70
2018-04-08T17:36:01.197Z,31.40
2018-04-08T17:38:29.555Z,30.73
2018-04-08T17:40:58.230Z,30.10
2018-04-08T17:43:25.577Z,31.08
2018-04-08T17:45:53.441Z,32.13
2018-04-08T17:48:21.355Z,31.58
2018-04-08T17:50:49.169Z,32.50
2018-04-08T17:53:19.795Z,31.73
2018-04-08T17:55:47.934Z,31.33
2018-04-08T17:58:16.672Z,32.20
2018-04-08T18:00:43.866Z,33.17
2018-04-08T18:03:10.920Z,33.10
2018-04-08T18:05:39.393Z,33.65
2018-04-08T18:08:07.634Z,34.75
2018-04-08T18:10:35.148Z,34.40
2018-04-08T18:13:02.870Z,33.85
2018-04-08T18:15:30.989Z,34.10
2018-04-08T18:17:58.447Z,33.42
2018-04-08T18:20:26.768Z,33.45
2018-04-08T18:22:55.460Z,33.70
2018-04-08T18:25:26.257Z,35.88
2018-04-08T18:27:53.262Z,36.38
2018-04-08T18:30:22.808Z,33.43
2018-04-08T18:32:52.736Z,34.15
2018-04-08T18:35:22.326Z,34.75
2018-04-08T18:37:51.802Z,34.97
2018-04-08T18:40:20.203Z,35.53
2018-04-08T18:42:47.422Z,34.88
2018-04-08T18:45:15.818Z,37.65
2018-04-08T18:47:43.560Z,35.40
2018-04-08T18:50:10.315Z,34.45
2018-04-08T18:52:37.353Z,34.20
2018-04-08T18:55:04.926Z,34.47
2018-04-08T18:57:31.838Z,33.80
2018-04-08T18:59:59.530Z,33.97
2018-04-08T19:02:28.856Z,35.00
2018-04-08T19:04:58.331Z,36.90
2018-04-08T19:07:32.802Z,37.20
2018-04-08T19:10:03.095Z,39.55
2018-04-08T19:12:32.926Z,38.67
2018-04-08T19:15:08.230Z,35.63
2018-04-08T19:17:44.334Z,37.40
2018-04-08T19:20:12.634Z,36.53
2018-04-08T19:22:43.525Z,36.90
2018-04-08T19:25:11.542Z,35.45
2018-04-08T19:27:39.023Z,37.35
2018-04-08T19:30:13.680Z,35.90
2018-04-08T19:32:42.270Z,35.80
2018-04-08T19:35:13.067Z,34.78
2018-04-08T19:37:41.111Z,34.75
2018-04-08T19:40:08.474Z,35.72
2018-04-08T19:42:36.270Z,35.47
2018-04-08T19:45:03.646Z,34.50
2018-04-08T19:47:33.589Z,36.05
2018-04-08T19:50:04.134Z,34.60
2018-04-08T19:52:31.093Z,33.35
2018-04-08T19:54:57.907Z,34.47
2018-04-08T19:57:25.518Z,35.45
2018-04-08T19:59:52.347Z,36.10
2018-04-08T20:02:19.759Z,37.20
2018-04-08T20:04:49.347Z,35.45
2018-04-08T20:07:17.299Z,34.55
2018-04-08T20:09:45.067Z,33.70
2018-04-08T20:12:13.498Z,35.73
2018-04-08T20:14:41.432Z,36.80
2018-04-08T20:17:09.695Z,36.53
2018-04-08T20:19:36.944Z,37.45
2018-04-08T20:22:04.766Z,37.40
2018-04-08T20:24:32.105Z,36.30
2018-04-08T20:27:00.569Z,36.70
2018-04-08T20:29:28.332Z,37.83
2018-04-08T20:31:56.053Z,36.72
2018-04-08T20:34:23.457Z,36.90
2018-04-08T20:36:50.911Z,37.78
2018-04-08T20:39:18.451Z,36.83
2018-04-08T20:41:45.295Z,36.92
2018-04-08T20:44:12.907Z,37.28
2018-04-08T20:46:40.387Z,36.23
2018-04-08T20:49:07.286Z,36.60
2018-04-08T20:51:37.688Z,36.42
2018-04-08T20:54:04.459Z,33.42
2018-04-08T20:56:31.967Z,34.00
2018-04-08T20:58:59.514Z,33.90
2018-04-08T21:01:26.384Z,32.75
2018-04-08T21:03:53.156Z,31.50
2018-04-08T21:06:20.717Z,31.63
2018-04-08T21:08:47.472Z,31.27
2018-04-08T21:11:14.231Z,31.50
2018-04-08T21:13:42.231Z,33.08
2018-04-08T21:16:09.094Z,34.72
2018-04-08T21:18:36.067Z,35.50
2018-04-08T21:21:02.933Z,35.20
2018-04-08T21:23:29.710Z,36.20
2018-04-08T21:25:56.516Z,35.60
2018-04-08T21:28:23.392Z,37.03
2018-04-08T21:30:50.409Z,36.65
2018-04-08T21:33:18.474Z,37.65
2018-04-08T21:35:45.269Z,39.30
2018-04-08T21:38:12.185Z,38.63
2018-04-08T21:40:38.883Z,41.25
2018-04-08T21:43:05.763Z,37.20
2018-04-08T21:45:32.615Z,32.70
2018-04-08T21:48:00.079Z,31.90
2018-04-08T21:50:26.965Z,32.53
2018-04-08T21:52:53.819Z,32.17
2018-04-08T21:55:21.452Z,32.33
2018-04-08T21:57:48.174Z,32.67
2018-04-08T22:00:14.892Z,34.00
2018-04-08T22:02:41.475Z,33.75
2018-04-08T22:05:08.270Z,34.08
2018-04-08T22:07:35.018Z,34.50
2018-04-08T22:10:01.981Z,32.22
2018-04-08T22:12:28.990Z,32.33
2018-04-08T22:14:56.430Z,32.85
2018-04-08T22:17:23.358Z,32.22
2018-04-08T22:19:50.181Z,31.75
2018-04-08T22:22:17.732Z,33.05
2018-04-08T22:24:44.577Z,31.17
2018-04-08T22:27:11.368Z,31.58
2018-04-08T22:29:39.665Z,29.80
2018-04-08T22:32:06.423Z,31.55
2018-04-08T22:34:33.825Z,31.75
2018-04-08T22:37:00.271Z,30.67
2018-04-08T22:39:27.579Z,30.27
2018-04-08T22:41:54.895Z,30.00
2018-04-08T22:44:21.746Z,29.65
2018-04-08T22:46:48.555Z,30.67
2018-04-08T22:49:15.315Z,31.10
2018-04-08T22:51:42.174Z,31.55
2018-04-08T22:54:09.042Z,30.50
2018-04-08T22:56:36.098Z,31.05
2018-04-08T22:59:02.872Z,30.17
2018-04-08T23:01:29.844Z,30.07
2018-04-08T23:03:56.694Z,29.05
2018-04-08T23:06:23.475Z,29.30
2018-04-08T23:08:50.428Z,29.20
2018-04-08T23:11:18.962Z,28.53
2018-04-08T23:13:46.582Z,27.98
2018-04-08T23:16:13.378Z,28.42
2018-04-08T23:18:40.149Z,29.02
2018-04-08T23:21:07.004Z,28.83
2018-04-08T23:23:33.781Z,28.62
2018-04-08T23:26:01.548Z,29.90
2018-04-08T23:28:28.322Z,30.05
2018-04-08T23:30:55.066Z,29.67
2018-04-08T23:33:22.095Z,29.77
2018-04-08T23:35:49.741Z,28.40
2018-04-08T23:38:16.693Z,27.55
2018-04-08T23:40:43.531Z,29.48
2018-04-08T23:43:10.342Z,28.73
2018-04-08T23:45:37.110Z,28.45
2018-04-08T23:48:04.316Z,28.00
2018-04-08T23:50:31.202Z,27.45
2018-04-08T23:52:58.032Z,28.17
2018-04-08T23:55:25.596Z,28.92
2018-04-08T23:57:52.347Z,28.20
